Terminal Aerodrome Forecast
Issued by NWS

Home | Current Version | Previous Version | Text Only | Print | Product List | Glossary On
Versions: 1 2 3 4 5 6 7 8 9 10 11 12
000
FTUS46 KMFR 222300
TAFRBG
TAF
KRBG 222335Z 2300/2324 35007KT P6SM BKN150
     FM230300 VRB02KT P6SM SCT080 OVC120
     FM231400 00000KT P6SM BKN050 OVC080
     FM232100 22005KT P6SM -SHRA OVC050=

USA.gov is the U.S. government's official web portal to all federal, state and local government web resources and services.